<?xml version="1.0" encoding="UTF-8" standalone="no" ?>
<gpx xmlns="http://www.topografix.com/GPX/1/1" xmlns:xsi="http://www.w3.org/2001/XMLSchema-instance" xsi:schemaLocation="http://www.topografix.com/GPX/1/1 http://www.topografix.com/GPX/1/1/gpx.xsd" version="1.1" creator="VisuGPX - https://www.visugpx.com">
  <metadata>
    <name>Marseilleveyre</name>
    <desc><![CDATA[SOmmet de marseilleveye de pastré]]></desc>
  </metadata>
  <trk>
    <name><![CDATA[2015-10-01 11:47]]></name>
    <desc><![CDATA[<h1>OruxMaps</h1><br /><hr align="center" width="480" style="height: 2px; width: 517px"/><h2>Nom: 2015-10-01 11:47</h2><br /><p>Temps de départ: 10/01/2015 11:47</p><p>Temps d'arrivée: 10/01/2015 14:01</p><p>Distance: 6,5km (02:13)</p><p>Temps déplacement: 01:36</p><p>Vitesse moyenne: 2,9km/h</p><p>Vitesse moyenne: 4,1km/h</p><p>Vitess Max.: 13,3km/h</p><p>Altitude minimale: 10m</p><p>Altitude maximale: 421m</p><p>Vitesse d'élévation: 622,2m/h</p><p>Vitesse de descente: -439,4m/h</p><p>Gain Altitude: 562m</p><p>Perte Altitude: -559m</p><p>Temps d'élévation: 00:54</p><p>Temps de descente: 01:16</p><hr align="center" width="480" style="height: 2px; width: 517px"/>]]></desc>
    <trkseg>
      <trkpt lat="43.23899" lon="5.36559">
        <ele>12.02</ele>
        <time>2015-10-01T09:47:17Z</time>
      </trkpt>
      <trkpt lat="43.23888" lon="5.36579">
        <ele>11.88</ele>
        <time>2015-10-01T09:47:33Z</time>
      </trkpt>
      <trkpt lat="43.23875" lon="5.36598">
        <ele>10.82</ele>
        <time>2015-10-01T09:47:44Z</time>
      </trkpt>
      <trkpt lat="43.23863" lon="5.36617">
        <ele>14.2</ele>
        <time>2015-10-01T09:47:58Z</time>
      </trkpt>
      <trkpt lat="43.2385" lon="5.36635">
        <ele>17.48</ele>
        <time>2015-10-01T09:48:09Z</time>
      </trkpt>
      <trkpt lat="43.23834" lon="5.36648">
        <ele>18.52</ele>
        <time>2015-10-01T09:48:21Z</time>
      </trkpt>
      <trkpt lat="43.23817" lon="5.36659">
        <ele>20.48</ele>
        <time>2015-10-01T09:48:36Z</time>
      </trkpt>
      <trkpt lat="43.23799" lon="5.36667">
        <ele>20.26</ele>
        <time>2015-10-01T09:48:56Z</time>
      </trkpt>
      <trkpt lat="43.23803" lon="5.36694">
        <ele>15.55</ele>
        <time>2015-10-01T09:49:17Z</time>
      </trkpt>
      <trkpt lat="43.23809" lon="5.36717">
        <ele>17.01</ele>
        <time>2015-10-01T09:49:28Z</time>
      </trkpt>
      <trkpt lat="43.23814" lon="5.36741">
        <ele>20.89</ele>
        <time>2015-10-01T09:49:45Z</time>
      </trkpt>
      <trkpt lat="43.23823" lon="5.36762">
        <ele>23.15</ele>
        <time>2015-10-01T09:49:56Z</time>
      </trkpt>
      <trkpt lat="43.23834" lon="5.36785">
        <ele>17.54</ele>
        <time>2015-10-01T09:50:41Z</time>
      </trkpt>
      <trkpt lat="43.23843" lon="5.36807">
        <ele>19.73</ele>
        <time>2015-10-01T09:50:54Z</time>
      </trkpt>
      <trkpt lat="43.23852" lon="5.36829">
        <ele>20.75</ele>
        <time>2015-10-01T09:51:06Z</time>
      </trkpt>
      <trkpt lat="43.23839" lon="5.36847">
        <ele>22.01</ele>
        <time>2015-10-01T09:51:20Z</time>
      </trkpt>
      <trkpt lat="43.23823" lon="5.3686">
        <ele>20.3</ele>
        <time>2015-10-01T09:51:32Z</time>
      </trkpt>
      <trkpt lat="43.23809" lon="5.36875">
        <ele>24.94</ele>
        <time>2015-10-01T09:51:58Z</time>
      </trkpt>
      <trkpt lat="43.23788" lon="5.36892">
        <ele>25.93</ele>
        <time>2015-10-01T09:52:08Z</time>
      </trkpt>
      <trkpt lat="43.23772" lon="5.36906">
        <ele>25.77</ele>
        <time>2015-10-01T09:52:14Z</time>
      </trkpt>
      <trkpt lat="43.23756" lon="5.36924">
        <ele>25.6</ele>
        <time>2015-10-01T09:52:21Z</time>
      </trkpt>
      <trkpt lat="43.23739" lon="5.36935">
        <ele>27.56</ele>
        <time>2015-10-01T09:52:27Z</time>
      </trkpt>
      <trkpt lat="43.23722" lon="5.36949">
        <ele>30.43</ele>
        <time>2015-10-01T09:52:35Z</time>
      </trkpt>
      <trkpt lat="43.23707" lon="5.36963">
        <ele>31.26</ele>
        <time>2015-10-01T09:52:41Z</time>
      </trkpt>
      <trkpt lat="43.23694" lon="5.36983">
        <ele>31.77</ele>
        <time>2015-10-01T09:52:48Z</time>
      </trkpt>
      <trkpt lat="43.2368" lon="5.36998">
        <ele>32.46</ele>
        <time>2015-10-01T09:52:57Z</time>
      </trkpt>
      <trkpt lat="43.23669" lon="5.37019">
        <ele>34.34</ele>
        <time>2015-10-01T09:53:10Z</time>
      </trkpt>
      <trkpt lat="43.23651" lon="5.37029">
        <ele>32.04</ele>
        <time>2015-10-01T09:53:19Z</time>
      </trkpt>
      <trkpt lat="43.23634" lon="5.37037">
        <ele>32.79</ele>
        <time>2015-10-01T09:53:30Z</time>
      </trkpt>
      <trkpt lat="43.23619" lon="5.37052">
        <ele>36.19</ele>
        <time>2015-10-01T09:53:39Z</time>
      </trkpt>
      <trkpt lat="43.23603" lon="5.37066">
        <ele>33.31</ele>
        <time>2015-10-01T09:53:50Z</time>
      </trkpt>
      <trkpt lat="43.23587" lon="5.37082">
        <ele>38.57</ele>
        <time>2015-10-01T09:54:02Z</time>
      </trkpt>
      <trkpt lat="43.23573" lon="5.371">
        <ele>37.35</ele>
        <time>2015-10-01T09:54:14Z</time>
      </trkpt>
      <trkpt lat="43.23557" lon="5.37113">
        <ele>37.9</ele>
        <time>2015-10-01T09:54:24Z</time>
      </trkpt>
      <trkpt lat="43.23541" lon="5.37129">
        <ele>37.61</ele>
        <time>2015-10-01T09:54:36Z</time>
      </trkpt>
      <trkpt lat="43.23526" lon="5.37142">
        <ele>41.26</ele>
        <time>2015-10-01T09:54:47Z</time>
      </trkpt>
      <trkpt lat="43.23509" lon="5.37154">
        <ele>38.93</ele>
        <time>2015-10-01T09:54:59Z</time>
      </trkpt>
      <trkpt lat="43.23494" lon="5.37169">
        <ele>39.39</ele>
        <time>2015-10-01T09:55:08Z</time>
      </trkpt>
      <trkpt lat="43.2348" lon="5.37186">
        <ele>39.46</ele>
        <time>2015-10-01T09:55:19Z</time>
      </trkpt>
      <trkpt lat="43.23466" lon="5.37204">
        <ele>40.45</ele>
        <time>2015-10-01T09:55:31Z</time>
      </trkpt>
      <trkpt lat="43.2345" lon="5.37217">
        <ele>39.33</ele>
        <time>2015-10-01T09:55:43Z</time>
      </trkpt>
      <trkpt lat="43.23447" lon="5.37243">
        <ele>46.02</ele>
        <time>2015-10-01T09:56:31Z</time>
      </trkpt>
      <trkpt lat="43.23436" lon="5.37265">
        <ele>37.52</ele>
        <time>2015-10-01T09:56:43Z</time>
      </trkpt>
      <trkpt lat="43.23435" lon="5.3729">
        <ele>45.75</ele>
        <time>2015-10-01T09:56:54Z</time>
      </trkpt>
      <trkpt lat="43.23424" lon="5.37314">
        <ele>44.04</ele>
        <time>2015-10-01T09:57:05Z</time>
      </trkpt>
      <trkpt lat="43.23415" lon="5.37337">
        <ele>39.49</ele>
        <time>2015-10-01T09:57:19Z</time>
      </trkpt>
      <trkpt lat="43.23399" lon="5.37351">
        <ele>48.25</ele>
        <time>2015-10-01T09:57:32Z</time>
      </trkpt>
      <trkpt lat="43.23382" lon="5.37365">
        <ele>50.49</ele>
        <time>2015-10-01T09:58:04Z</time>
      </trkpt>
      <trkpt lat="43.23367" lon="5.37347">
        <ele>59.35</ele>
        <time>2015-10-01T09:58:21Z</time>
      </trkpt>
      <trkpt lat="43.23356" lon="5.37327">
        <ele>61.14</ele>
        <time>2015-10-01T09:58:31Z</time>
      </trkpt>
      <trkpt lat="43.23341" lon="5.37312">
        <ele>60.13</ele>
        <time>2015-10-01T09:58:43Z</time>
      </trkpt>
      <trkpt lat="43.23323" lon="5.37316">
        <ele>58.28</ele>
        <time>2015-10-01T09:58:57Z</time>
      </trkpt>
      <trkpt lat="43.23306" lon="5.37323">
        <ele>58.86</ele>
        <time>2015-10-01T09:59:06Z</time>
      </trkpt>
      <trkpt lat="43.23289" lon="5.37331">
        <ele>50.03</ele>
        <time>2015-10-01T09:59:16Z</time>
      </trkpt>
      <trkpt lat="43.23272" lon="5.37343">
        <ele>53.02</ele>
        <time>2015-10-01T09:59:25Z</time>
      </trkpt>
      <trkpt lat="43.23254" lon="5.37348">
        <ele>55.75</ele>
        <time>2015-10-01T09:59:35Z</time>
      </trkpt>
      <trkpt lat="43.23243" lon="5.3737">
        <ele>56.99</ele>
        <time>2015-10-01T09:59:46Z</time>
      </trkpt>
      <trkpt lat="43.23232" lon="5.37392">
        <ele>54.9</ele>
        <time>2015-10-01T09:59:59Z</time>
      </trkpt>
      <trkpt lat="43.23216" lon="5.37404">
        <ele>47.77</ele>
        <time>2015-10-01T10:00:07Z</time>
      </trkpt>
      <trkpt lat="43.23197" lon="5.37403">
        <ele>55.47</ele>
        <time>2015-10-01T10:00:16Z</time>
      </trkpt>
      <trkpt lat="43.23177" lon="5.37413">
        <ele>52.37</ele>
        <time>2015-10-01T10:00:25Z</time>
      </trkpt>
      <trkpt lat="43.2316" lon="5.37425">
        <ele>51.04</ele>
        <time>2015-10-01T10:00:31Z</time>
      </trkpt>
      <trkpt lat="43.2314" lon="5.37425">
        <ele>50.88</ele>
        <time>2015-10-01T10:00:37Z</time>
      </trkpt>
      <trkpt lat="43.23124" lon="5.37442">
        <ele>49.07</ele>
        <time>2015-10-01T10:00:43Z</time>
      </trkpt>
      <trkpt lat="43.23108" lon="5.37459">
        <ele>27.44</ele>
        <time>2015-10-01T10:00:50Z</time>
      </trkpt>
      <trkpt lat="43.2309" lon="5.37472">
        <ele>37.44</ele>
        <time>2015-10-01T10:00:57Z</time>
      </trkpt>
      <trkpt lat="43.23075" lon="5.37486">
        <ele>29.36</ele>
        <time>2015-10-01T10:01:03Z</time>
      </trkpt>
      <trkpt lat="43.23058" lon="5.375">
        <ele>24.53</ele>
        <time>2015-10-01T10:01:12Z</time>
      </trkpt>
      <trkpt lat="43.23042" lon="5.37514">
        <ele>39.55</ele>
        <time>2015-10-01T10:01:23Z</time>
      </trkpt>
      <trkpt lat="43.23032" lon="5.37534">
        <ele>41.74</ele>
        <time>2015-10-01T10:01:36Z</time>
      </trkpt>
      <trkpt lat="43.2302" lon="5.37554">
        <ele>39.63</ele>
        <time>2015-10-01T10:02:02Z</time>
      </trkpt>
      <trkpt lat="43.23008" lon="5.37575">
        <ele>45.32</ele>
        <time>2015-10-01T10:02:18Z</time>
      </trkpt>
      <trkpt lat="43.22992" lon="5.37591">
        <ele>51.93</ele>
        <time>2015-10-01T10:02:32Z</time>
      </trkpt>
      <trkpt lat="43.22976" lon="5.37581">
        <ele>53.55</ele>
        <time>2015-10-01T10:02:43Z</time>
      </trkpt>
      <trkpt lat="43.22958" lon="5.37586">
        <ele>58.75</ele>
        <time>2015-10-01T10:02:57Z</time>
      </trkpt>
      <trkpt lat="43.2294" lon="5.3759">
        <ele>64.99</ele>
        <time>2015-10-01T10:03:12Z</time>
      </trkpt>
      <trkpt lat="43.22934" lon="5.37615">
        <ele>78.93</ele>
        <time>2015-10-01T10:03:34Z</time>
      </trkpt>
      <trkpt lat="43.22922" lon="5.37634">
        <ele>91.76</ele>
        <time>2015-10-01T10:03:48Z</time>
      </trkpt>
      <trkpt lat="43.22906" lon="5.37644">
        <ele>89.11</ele>
        <time>2015-10-01T10:04:10Z</time>
      </trkpt>
      <trkpt lat="43.22887" lon="5.37643">
        <ele>97.88</ele>
        <time>2015-10-01T10:04:26Z</time>
      </trkpt>
      <trkpt lat="43.22873" lon="5.3766">
        <ele>100.53</ele>
        <time>2015-10-01T10:04:39Z</time>
      </trkpt>
      <trkpt lat="43.22857" lon="5.37672">
        <ele>108.61</ele>
        <time>2015-10-01T10:04:53Z</time>
      </trkpt>
      <trkpt lat="43.22853" lon="5.37697">
        <ele>117.72</ele>
        <time>2015-10-01T10:05:07Z</time>
      </trkpt>
      <trkpt lat="43.22838" lon="5.37711">
        <ele>118.02</ele>
        <time>2015-10-01T10:05:21Z</time>
      </trkpt>
      <trkpt lat="43.22821" lon="5.37719">
        <ele>123.85</ele>
        <time>2015-10-01T10:06:45Z</time>
      </trkpt>
      <trkpt lat="43.22807" lon="5.37739">
        <ele>132.89</ele>
        <time>2015-10-01T10:08:35Z</time>
      </trkpt>
      <trkpt lat="43.22789" lon="5.37743">
        <ele>133.46</ele>
        <time>2015-10-01T10:08:45Z</time>
      </trkpt>
      <trkpt lat="43.22769" lon="5.37749">
        <ele>132.49</ele>
        <time>2015-10-01T10:08:56Z</time>
      </trkpt>
      <trkpt lat="43.22751" lon="5.37755">
        <ele>135.91</ele>
        <time>2015-10-01T10:09:09Z</time>
      </trkpt>
      <trkpt lat="43.22734" lon="5.37768">
        <ele>132.25</ele>
        <time>2015-10-01T10:09:26Z</time>
      </trkpt>
      <trkpt lat="43.22721" lon="5.37786">
        <ele>130.7</ele>
        <time>2015-10-01T10:09:40Z</time>
      </trkpt>
      <trkpt lat="43.22707" lon="5.37805">
        <ele>127.59</ele>
        <time>2015-10-01T10:09:54Z</time>
      </trkpt>
      <trkpt lat="43.22702" lon="5.37808">
        <ele>132.02</ele>
        <time>2015-10-01T10:10:08Z</time>
      </trkpt>
      <trkpt lat="43.22683" lon="5.3782">
        <ele>143.62</ele>
        <time>2015-10-01T10:10:20Z</time>
      </trkpt>
      <trkpt lat="43.22673" lon="5.37795">
        <ele>144.87</ele>
        <time>2015-10-01T10:11:10Z</time>
      </trkpt>
      <trkpt lat="43.22687" lon="5.37776">
        <ele>147.68</ele>
        <time>2015-10-01T10:11:59Z</time>
      </trkpt>
      <trkpt lat="43.22693" lon="5.37752">
        <ele>147.25</ele>
        <time>2015-10-01T10:12:06Z</time>
      </trkpt>
      <trkpt lat="43.22686" lon="5.37775">
        <ele>142.65</ele>
        <time>2015-10-01T10:12:30Z</time>
      </trkpt>
      <trkpt lat="43.22667" lon="5.37786">
        <ele>139.53</ele>
        <time>2015-10-01T10:12:37Z</time>
      </trkpt>
      <trkpt lat="43.2267" lon="5.37811">
        <ele>138.84</ele>
        <time>2015-10-01T10:12:45Z</time>
      </trkpt>
      <trkpt lat="43.22675" lon="5.37835">
        <ele>137.04</ele>
        <time>2015-10-01T10:13:02Z</time>
      </trkpt>
      <trkpt lat="43.22691" lon="5.37847">
        <ele>142.65</ele>
        <time>2015-10-01T10:13:14Z</time>
      </trkpt>
      <trkpt lat="43.22702" lon="5.37868">
        <ele>144.66</ele>
        <time>2015-10-01T10:13:26Z</time>
      </trkpt>
      <trkpt lat="43.22718" lon="5.37883">
        <ele>141.91</ele>
        <time>2015-10-01T10:13:43Z</time>
      </trkpt>
      <trkpt lat="43.22721" lon="5.37909">
        <ele>143.9</ele>
        <time>2015-10-01T10:13:51Z</time>
      </trkpt>
      <trkpt lat="43.22726" lon="5.37935">
        <ele>148.86</ele>
        <time>2015-10-01T10:14:06Z</time>
      </trkpt>
      <trkpt lat="43.22746" lon="5.37937">
        <ele>149.27</ele>
        <time>2015-10-01T10:14:57Z</time>
      </trkpt>
      <trkpt lat="43.22756" lon="5.37914">
        <ele>151.68</ele>
        <time>2015-10-01T10:15:08Z</time>
      </trkpt>
      <trkpt lat="43.22767" lon="5.37934">
        <ele>163.89</ele>
        <time>2015-10-01T10:15:54Z</time>
      </trkpt>
      <trkpt lat="43.22769" lon="5.3796">
        <ele>180.58</ele>
        <time>2015-10-01T10:16:57Z</time>
      </trkpt>
      <trkpt lat="43.22762" lon="5.37983">
        <ele>187.41</ele>
        <time>2015-10-01T10:17:16Z</time>
      </trkpt>
      <trkpt lat="43.22765" lon="5.38008">
        <ele>198.02</ele>
        <time>2015-10-01T10:18:33Z</time>
      </trkpt>
      <trkpt lat="43.22775" lon="5.38031">
        <ele>210.24</ele>
        <time>2015-10-01T10:18:52Z</time>
      </trkpt>
      <trkpt lat="43.22766" lon="5.38053">
        <ele>215.1</ele>
        <time>2015-10-01T10:19:06Z</time>
      </trkpt>
      <trkpt lat="43.22753" lon="5.38072">
        <ele>196.88</ele>
        <time>2015-10-01T10:19:18Z</time>
      </trkpt>
      <trkpt lat="43.22737" lon="5.38087">
        <ele>212.67</ele>
        <time>2015-10-01T10:19:32Z</time>
      </trkpt>
      <trkpt lat="43.2272" lon="5.38095">
        <ele>219.94</ele>
        <time>2015-10-01T10:19:46Z</time>
      </trkpt>
      <trkpt lat="43.22717" lon="5.38111">
        <ele>218.02</ele>
        <time>2015-10-01T10:20:45Z</time>
      </trkpt>
      <trkpt lat="43.22705" lon="5.38132">
        <ele>228.63</ele>
        <time>2015-10-01T10:21:31Z</time>
      </trkpt>
      <trkpt lat="43.22686" lon="5.38131">
        <ele>240.52</ele>
        <time>2015-10-01T10:22:11Z</time>
      </trkpt>
      <trkpt lat="43.22672" lon="5.3811">
        <ele>236.99</ele>
        <time>2015-10-01T10:22:21Z</time>
      </trkpt>
      <trkpt lat="43.22659" lon="5.38091">
        <ele>236.91</ele>
        <time>2015-10-01T10:22:27Z</time>
      </trkpt>
      <trkpt lat="43.22647" lon="5.38073">
        <ele>243.13</ele>
        <time>2015-10-01T10:23:00Z</time>
      </trkpt>
      <trkpt lat="43.22636" lon="5.38052">
        <ele>243.52</ele>
        <time>2015-10-01T10:23:22Z</time>
      </trkpt>
      <trkpt lat="43.22633" lon="5.38027">
        <ele>242.43</ele>
        <time>2015-10-01T10:23:30Z</time>
      </trkpt>
      <trkpt lat="43.22627" lon="5.38001">
        <ele>242.51</ele>
        <time>2015-10-01T10:23:38Z</time>
      </trkpt>
      <trkpt lat="43.22608" lon="5.37995">
        <ele>238.38</ele>
        <time>2015-10-01T10:23:49Z</time>
      </trkpt>
      <trkpt lat="43.22593" lon="5.37978">
        <ele>236.89</ele>
        <time>2015-10-01T10:24:41Z</time>
      </trkpt>
      <trkpt lat="43.22591" lon="5.3795">
        <ele>235.86</ele>
        <time>2015-10-01T10:24:54Z</time>
      </trkpt>
      <trkpt lat="43.22579" lon="5.3793">
        <ele>232.4</ele>
        <time>2015-10-01T10:25:06Z</time>
      </trkpt>
      <trkpt lat="43.22562" lon="5.37921">
        <ele>227.14</ele>
        <time>2015-10-01T10:25:21Z</time>
      </trkpt>
      <trkpt lat="43.22543" lon="5.37914">
        <ele>223.3</ele>
        <time>2015-10-01T10:25:35Z</time>
      </trkpt>
      <trkpt lat="43.22526" lon="5.37907">
        <ele>220.32</ele>
        <time>2015-10-01T10:25:47Z</time>
      </trkpt>
      <trkpt lat="43.22509" lon="5.37916">
        <ele>218.16</ele>
        <time>2015-10-01T10:26:04Z</time>
      </trkpt>
      <trkpt lat="43.22494" lon="5.37931">
        <ele>215.48</ele>
        <time>2015-10-01T10:26:16Z</time>
      </trkpt>
      <trkpt lat="43.22475" lon="5.37927">
        <ele>217.87</ele>
        <time>2015-10-01T10:26:35Z</time>
      </trkpt>
      <trkpt lat="43.22457" lon="5.37917">
        <ele>222.89</ele>
        <time>2015-10-01T10:26:48Z</time>
      </trkpt>
      <trkpt lat="43.22446" lon="5.37898">
        <ele>230.64</ele>
        <time>2015-10-01T10:26:59Z</time>
      </trkpt>
      <trkpt lat="43.22434" lon="5.37879">
        <ele>124.68</ele>
        <time>2015-10-01T10:27:28Z</time>
      </trkpt>
      <trkpt lat="43.2242" lon="5.37862">
        <ele>197.62</ele>
        <time>2015-10-01T10:27:39Z</time>
      </trkpt>
      <trkpt lat="43.22406" lon="5.3784">
        <ele>231.86</ele>
        <time>2015-10-01T10:28:30Z</time>
      </trkpt>
      <trkpt lat="43.22404" lon="5.37815">
        <ele>234.73</ele>
        <time>2015-10-01T10:28:37Z</time>
      </trkpt>
      <trkpt lat="43.22402" lon="5.37789">
        <ele>234.29</ele>
        <time>2015-10-01T10:28:47Z</time>
      </trkpt>
      <trkpt lat="43.22417" lon="5.37776">
        <ele>234.13</ele>
        <time>2015-10-01T10:29:33Z</time>
      </trkpt>
      <trkpt lat="43.22436" lon="5.37779">
        <ele>245.78</ele>
        <time>2015-10-01T10:29:57Z</time>
      </trkpt>
      <trkpt lat="43.22444" lon="5.37778">
        <ele>256.02</ele>
        <time>2015-10-01T10:30:35Z</time>
      </trkpt>
      <trkpt lat="43.22439" lon="5.37754">
        <ele>252.05</ele>
        <time>2015-10-01T10:31:35Z</time>
      </trkpt>
      <trkpt lat="43.22437" lon="5.37727">
        <ele>273.2</ele>
        <time>2015-10-01T10:32:10Z</time>
      </trkpt>
      <trkpt lat="43.22446" lon="5.37705">
        <ele>274.34</ele>
        <time>2015-10-01T10:32:24Z</time>
      </trkpt>
      <trkpt lat="43.22452" lon="5.37681">
        <ele>271.45</ele>
        <time>2015-10-01T10:32:38Z</time>
      </trkpt>
      <trkpt lat="43.22459" lon="5.37658">
        <ele>276.01</ele>
        <time>2015-10-01T10:32:52Z</time>
      </trkpt>
      <trkpt lat="43.22463" lon="5.37632">
        <ele>270.76</ele>
        <time>2015-10-01T10:33:08Z</time>
      </trkpt>
      <trkpt lat="43.22472" lon="5.37609">
        <ele>274.3</ele>
        <time>2015-10-01T10:33:22Z</time>
      </trkpt>
      <trkpt lat="43.2248" lon="5.37587">
        <ele>275.02</ele>
        <time>2015-10-01T10:33:37Z</time>
      </trkpt>
      <trkpt lat="43.22495" lon="5.37573">
        <ele>283.66</ele>
        <time>2015-10-01T10:33:50Z</time>
      </trkpt>
      <trkpt lat="43.22505" lon="5.37547">
        <ele>284.42</ele>
        <time>2015-10-01T10:34:17Z</time>
      </trkpt>
      <trkpt lat="43.22519" lon="5.37529">
        <ele>290.8</ele>
        <time>2015-10-01T10:34:33Z</time>
      </trkpt>
      <trkpt lat="43.22528" lon="5.37507">
        <ele>290.48</ele>
        <time>2015-10-01T10:35:08Z</time>
      </trkpt>
      <trkpt lat="43.22536" lon="5.37484">
        <ele>287.56</ele>
        <time>2015-10-01T10:35:47Z</time>
      </trkpt>
      <trkpt lat="43.22551" lon="5.37468">
        <ele>288.17</ele>
        <time>2015-10-01T10:36:01Z</time>
      </trkpt>
      <trkpt lat="43.22564" lon="5.37448">
        <ele>289.02</ele>
        <time>2015-10-01T10:36:15Z</time>
      </trkpt>
      <trkpt lat="43.22558" lon="5.37423">
        <ele>286.54</ele>
        <time>2015-10-01T10:36:28Z</time>
      </trkpt>
      <trkpt lat="43.22548" lon="5.37402">
        <ele>297.68</ele>
        <time>2015-10-01T10:36:54Z</time>
      </trkpt>
      <trkpt lat="43.22532" lon="5.37391">
        <ele>303.04</ele>
        <time>2015-10-01T10:37:54Z</time>
      </trkpt>
      <trkpt lat="43.22512" lon="5.37388">
        <ele>311.16</ele>
        <time>2015-10-01T10:39:46Z</time>
      </trkpt>
      <trkpt lat="43.22494" lon="5.37386">
        <ele>340.15</ele>
        <time>2015-10-01T10:41:41Z</time>
      </trkpt>
      <trkpt lat="43.22489" lon="5.37362">
        <ele>346.87</ele>
        <time>2015-10-01T10:42:02Z</time>
      </trkpt>
      <trkpt lat="43.22481" lon="5.37338">
        <ele>354.26</ele>
        <time>2015-10-01T10:42:30Z</time>
      </trkpt>
      <trkpt lat="43.22463" lon="5.3734">
        <ele>366.4</ele>
        <time>2015-10-01T10:43:04Z</time>
      </trkpt>
      <trkpt lat="43.22455" lon="5.37317">
        <ele>367.99</ele>
        <time>2015-10-01T10:43:51Z</time>
      </trkpt>
      <trkpt lat="43.22449" lon="5.37291">
        <ele>379.64</ele>
        <time>2015-10-01T10:44:29Z</time>
      </trkpt>
      <trkpt lat="43.2243" lon="5.37283">
        <ele>392.63</ele>
        <time>2015-10-01T10:45:15Z</time>
      </trkpt>
      <trkpt lat="43.22417" lon="5.37301">
        <ele>396.69</ele>
        <time>2015-10-01T10:45:51Z</time>
      </trkpt>
      <trkpt lat="43.22402" lon="5.37286">
        <ele>406.6</ele>
        <time>2015-10-01T10:46:12Z</time>
      </trkpt>
      <trkpt lat="43.22384" lon="5.37279">
        <ele>405.51</ele>
        <time>2015-10-01T10:46:26Z</time>
      </trkpt>
      <trkpt lat="43.22365" lon="5.37272">
        <ele>409.26</ele>
        <time>2015-10-01T10:46:41Z</time>
      </trkpt>
      <trkpt lat="43.22353" lon="5.37251">
        <ele>414.42</ele>
        <time>2015-10-01T10:46:54Z</time>
      </trkpt>
      <trkpt lat="43.22336" lon="5.37238">
        <ele>420.02</ele>
        <time>2015-10-01T10:47:48Z</time>
      </trkpt>
      <trkpt lat="43.2233" lon="5.37214">
        <ele>421.02</ele>
        <time>2015-10-01T10:49:14Z</time>
      </trkpt>
      <trkpt lat="43.22337" lon="5.37238">
        <ele>419.99</ele>
        <time>2015-10-01T11:00:23Z</time>
      </trkpt>
      <trkpt lat="43.22351" lon="5.37255">
        <ele>417.73</ele>
        <time>2015-10-01T11:00:56Z</time>
      </trkpt>
      <trkpt lat="43.22365" lon="5.37271">
        <ele>412.29</ele>
        <time>2015-10-01T11:01:10Z</time>
      </trkpt>
      <trkpt lat="43.22382" lon="5.37279">
        <ele>407.17</ele>
        <time>2015-10-01T11:01:41Z</time>
      </trkpt>
      <trkpt lat="43.22399" lon="5.37287">
        <ele>409.97</ele>
        <time>2015-10-01T11:01:52Z</time>
      </trkpt>
      <trkpt lat="43.22418" lon="5.37289">
        <ele>392.52</ele>
        <time>2015-10-01T11:02:57Z</time>
      </trkpt>
      <trkpt lat="43.22436" lon="5.37283">
        <ele>386.54</ele>
        <time>2015-10-01T11:03:28Z</time>
      </trkpt>
      <trkpt lat="43.22447" lon="5.37302">
        <ele>383.07</ele>
        <time>2015-10-01T11:04:29Z</time>
      </trkpt>
      <trkpt lat="43.22454" lon="5.37325">
        <ele>368.87</ele>
        <time>2015-10-01T11:05:15Z</time>
      </trkpt>
      <trkpt lat="43.22456" lon="5.37353">
        <ele>364.71</ele>
        <time>2015-10-01T11:06:59Z</time>
      </trkpt>
      <trkpt lat="43.22454" lon="5.37379">
        <ele>362.5</ele>
        <time>2015-10-01T11:07:16Z</time>
      </trkpt>
      <trkpt lat="43.22455" lon="5.37404">
        <ele>357.26</ele>
        <time>2015-10-01T11:07:30Z</time>
      </trkpt>
      <trkpt lat="43.22456" lon="5.37429">
        <ele>347.78</ele>
        <time>2015-10-01T11:07:41Z</time>
      </trkpt>
      <trkpt lat="43.22463" lon="5.37452">
        <ele>350.05</ele>
        <time>2015-10-01T11:08:00Z</time>
      </trkpt>
      <trkpt lat="43.22463" lon="5.37478">
        <ele>353.29</ele>
        <time>2015-10-01T11:08:28Z</time>
      </trkpt>
      <trkpt lat="43.22458" lon="5.37501">
        <ele>348.06</ele>
        <time>2015-10-01T11:08:50Z</time>
      </trkpt>
      <trkpt lat="43.22446" lon="5.37523">
        <ele>341.69</ele>
        <time>2015-10-01T11:09:09Z</time>
      </trkpt>
      <trkpt lat="43.22438" lon="5.37547">
        <ele>339.02</ele>
        <time>2015-10-01T11:12:13Z</time>
      </trkpt>
      <trkpt lat="43.22431" lon="5.37571">
        <ele>319.63</ele>
        <time>2015-10-01T11:12:42Z</time>
      </trkpt>
      <trkpt lat="43.22418" lon="5.37589">
        <ele>331.89</ele>
        <time>2015-10-01T11:12:58Z</time>
      </trkpt>
      <trkpt lat="43.22409" lon="5.37612">
        <ele>323.22</ele>
        <time>2015-10-01T11:13:20Z</time>
      </trkpt>
      <trkpt lat="43.22399" lon="5.37634">
        <ele>322.15</ele>
        <time>2015-10-01T11:13:45Z</time>
      </trkpt>
      <trkpt lat="43.22383" lon="5.37648">
        <ele>319.11</ele>
        <time>2015-10-01T11:14:05Z</time>
      </trkpt>
      <trkpt lat="43.22368" lon="5.37665">
        <ele>313.27</ele>
        <time>2015-10-01T11:14:24Z</time>
      </trkpt>
      <trkpt lat="43.22355" lon="5.37682">
        <ele>306.68</ele>
        <time>2015-10-01T11:15:15Z</time>
      </trkpt>
      <trkpt lat="43.22348" lon="5.37699">
        <ele>301.02</ele>
        <time>2015-10-01T11:16:43Z</time>
      </trkpt>
      <trkpt lat="43.22334" lon="5.37717">
        <ele>295.48</ele>
        <time>2015-10-01T11:19:27Z</time>
      </trkpt>
      <trkpt lat="43.22339" lon="5.37741">
        <ele>280.02</ele>
        <time>2015-10-01T11:20:57Z</time>
      </trkpt>
      <trkpt lat="43.22344" lon="5.37765">
        <ele>269.23</ele>
        <time>2015-10-01T11:22:00Z</time>
      </trkpt>
      <trkpt lat="43.22351" lon="5.37789">
        <ele>320.53</ele>
        <time>2015-10-01T11:22:42Z</time>
      </trkpt>
      <trkpt lat="43.22365" lon="5.37771">
        <ele>253.46</ele>
        <time>2015-10-01T11:24:25Z</time>
      </trkpt>
      <trkpt lat="43.22382" lon="5.37779">
        <ele>244.93</ele>
        <time>2015-10-01T11:25:14Z</time>
      </trkpt>
      <trkpt lat="43.22393" lon="5.37801">
        <ele>239.82</ele>
        <time>2015-10-01T11:25:35Z</time>
      </trkpt>
      <trkpt lat="43.22401" lon="5.37824">
        <ele>239.3</ele>
        <time>2015-10-01T11:25:47Z</time>
      </trkpt>
      <trkpt lat="43.22403" lon="5.3785">
        <ele>236.54</ele>
        <time>2015-10-01T11:26:02Z</time>
      </trkpt>
      <trkpt lat="43.2242" lon="5.37867">
        <ele>231.02</ele>
        <time>2015-10-01T11:27:17Z</time>
      </trkpt>
      <trkpt lat="43.22433" lon="5.37888">
        <ele>219.95</ele>
        <time>2015-10-01T11:27:24Z</time>
      </trkpt>
      <trkpt lat="43.22447" lon="5.37904">
        <ele>216.69</ele>
        <time>2015-10-01T11:27:30Z</time>
      </trkpt>
      <trkpt lat="43.22456" lon="5.37926">
        <ele>215.14</ele>
        <time>2015-10-01T11:27:38Z</time>
      </trkpt>
      <trkpt lat="43.22476" lon="5.37927">
        <ele>212.9</ele>
        <time>2015-10-01T11:27:46Z</time>
      </trkpt>
      <trkpt lat="43.22493" lon="5.3792">
        <ele>216.01</ele>
        <time>2015-10-01T11:27:54Z</time>
      </trkpt>
      <trkpt lat="43.22509" lon="5.37909">
        <ele>211.19</ele>
        <time>2015-10-01T11:28:03Z</time>
      </trkpt>
      <trkpt lat="43.22527" lon="5.37919">
        <ele>210.41</ele>
        <time>2015-10-01T11:28:12Z</time>
      </trkpt>
      <trkpt lat="43.22545" lon="5.37923">
        <ele>218.53</ele>
        <time>2015-10-01T11:28:25Z</time>
      </trkpt>
      <trkpt lat="43.22565" lon="5.37929">
        <ele>220.33</ele>
        <time>2015-10-01T11:29:25Z</time>
      </trkpt>
      <trkpt lat="43.22583" lon="5.37934">
        <ele>232.83</ele>
        <time>2015-10-01T11:30:12Z</time>
      </trkpt>
      <trkpt lat="43.22591" lon="5.3796">
        <ele>232.58</ele>
        <time>2015-10-01T11:30:18Z</time>
      </trkpt>
      <trkpt lat="43.22598" lon="5.37984">
        <ele>234.68</ele>
        <time>2015-10-01T11:30:26Z</time>
      </trkpt>
      <trkpt lat="43.22617" lon="5.38001">
        <ele>235.88</ele>
        <time>2015-10-01T11:30:38Z</time>
      </trkpt>
      <trkpt lat="43.22629" lon="5.3802">
        <ele>235.59</ele>
        <time>2015-10-01T11:30:46Z</time>
      </trkpt>
      <trkpt lat="43.2264" lon="5.38041">
        <ele>236.21</ele>
        <time>2015-10-01T11:30:54Z</time>
      </trkpt>
      <trkpt lat="43.22646" lon="5.38068">
        <ele>236.63</ele>
        <time>2015-10-01T11:31:00Z</time>
      </trkpt>
      <trkpt lat="43.22659" lon="5.38088">
        <ele>236.44</ele>
        <time>2015-10-01T11:31:08Z</time>
      </trkpt>
      <trkpt lat="43.22667" lon="5.38111">
        <ele>232.9</ele>
        <time>2015-10-01T11:31:17Z</time>
      </trkpt>
      <trkpt lat="43.22682" lon="5.38128">
        <ele>232.63</ele>
        <time>2015-10-01T11:31:26Z</time>
      </trkpt>
      <trkpt lat="43.22696" lon="5.38144">
        <ele>231.95</ele>
        <time>2015-10-01T11:31:35Z</time>
      </trkpt>
      <trkpt lat="43.22707" lon="5.38123">
        <ele>224.77</ele>
        <time>2015-10-01T11:31:48Z</time>
      </trkpt>
      <trkpt lat="43.22718" lon="5.38102">
        <ele>217</ele>
        <time>2015-10-01T11:31:58Z</time>
      </trkpt>
      <trkpt lat="43.22735" lon="5.38092">
        <ele>211.04</ele>
        <time>2015-10-01T11:32:08Z</time>
      </trkpt>
      <trkpt lat="43.22751" lon="5.3807">
        <ele>209.12</ele>
        <time>2015-10-01T11:32:17Z</time>
      </trkpt>
      <trkpt lat="43.22766" lon="5.38051">
        <ele>207.07</ele>
        <time>2015-10-01T11:32:23Z</time>
      </trkpt>
      <trkpt lat="43.22777" lon="5.38032">
        <ele>206.55</ele>
        <time>2015-10-01T11:32:29Z</time>
      </trkpt>
      <trkpt lat="43.22784" lon="5.38005">
        <ele>201.77</ele>
        <time>2015-10-01T11:33:05Z</time>
      </trkpt>
      <trkpt lat="43.22768" lon="5.37992">
        <ele>195.23</ele>
        <time>2015-10-01T11:34:04Z</time>
      </trkpt>
      <trkpt lat="43.22769" lon="5.37967">
        <ele>192.67</ele>
        <time>2015-10-01T11:34:44Z</time>
      </trkpt>
      <trkpt lat="43.22771" lon="5.37943">
        <ele>178.84</ele>
        <time>2015-10-01T11:36:24Z</time>
      </trkpt>
      <trkpt lat="43.22769" lon="5.37917">
        <ele>167.23</ele>
        <time>2015-10-01T11:37:06Z</time>
      </trkpt>
      <trkpt lat="43.22751" lon="5.37931">
        <ele>169.69</ele>
        <time>2015-10-01T11:37:53Z</time>
      </trkpt>
      <trkpt lat="43.22732" lon="5.37931">
        <ele>163.17</ele>
        <time>2015-10-01T11:38:03Z</time>
      </trkpt>
      <trkpt lat="43.22724" lon="5.37907">
        <ele>151.24</ele>
        <time>2015-10-01T11:38:23Z</time>
      </trkpt>
      <trkpt lat="43.22721" lon="5.37881">
        <ele>145.93</ele>
        <time>2015-10-01T11:38:33Z</time>
      </trkpt>
      <trkpt lat="43.22704" lon="5.37863">
        <ele>147.77</ele>
        <time>2015-10-01T11:39:37Z</time>
      </trkpt>
      <trkpt lat="43.22689" lon="5.37848">
        <ele>141.72</ele>
        <time>2015-10-01T11:39:49Z</time>
      </trkpt>
      <trkpt lat="43.22677" lon="5.3783">
        <ele>140.53</ele>
        <time>2015-10-01T11:41:22Z</time>
      </trkpt>
      <trkpt lat="43.22691" lon="5.37809">
        <ele>130.78</ele>
        <time>2015-10-01T11:41:51Z</time>
      </trkpt>
      <trkpt lat="43.22708" lon="5.37794">
        <ele>130.68</ele>
        <time>2015-10-01T11:42:08Z</time>
      </trkpt>
      <trkpt lat="43.22722" lon="5.3778">
        <ele>139.37</ele>
        <time>2015-10-01T11:42:21Z</time>
      </trkpt>
      <trkpt lat="43.22738" lon="5.37766">
        <ele>126.79</ele>
        <time>2015-10-01T11:42:32Z</time>
      </trkpt>
      <trkpt lat="43.22755" lon="5.37755">
        <ele>118.47</ele>
        <time>2015-10-01T11:42:47Z</time>
      </trkpt>
      <trkpt lat="43.22772" lon="5.37743">
        <ele>166.2</ele>
        <time>2015-10-01T11:43:07Z</time>
      </trkpt>
      <trkpt lat="43.22791" lon="5.37737">
        <ele>124.92</ele>
        <time>2015-10-01T11:43:21Z</time>
      </trkpt>
      <trkpt lat="43.22808" lon="5.37726">
        <ele>121.58</ele>
        <time>2015-10-01T11:43:32Z</time>
      </trkpt>
      <trkpt lat="43.22826" lon="5.37713">
        <ele>114.63</ele>
        <time>2015-10-01T11:43:44Z</time>
      </trkpt>
      <trkpt lat="43.22834" lon="5.3769">
        <ele>107.05</ele>
        <time>2015-10-01T11:43:59Z</time>
      </trkpt>
      <trkpt lat="43.22844" lon="5.37668">
        <ele>105.3</ele>
        <time>2015-10-01T11:44:18Z</time>
      </trkpt>
      <trkpt lat="43.22859" lon="5.37651">
        <ele>99.99</ele>
        <time>2015-10-01T11:44:38Z</time>
      </trkpt>
      <trkpt lat="43.22877" lon="5.3765">
        <ele>90.03</ele>
        <time>2015-10-01T11:45:00Z</time>
      </trkpt>
      <trkpt lat="43.2289" lon="5.37633">
        <ele>86.84</ele>
        <time>2015-10-01T11:45:15Z</time>
      </trkpt>
      <trkpt lat="43.22909" lon="5.37631">
        <ele>81.64</ele>
        <time>2015-10-01T11:45:34Z</time>
      </trkpt>
      <trkpt lat="43.22912" lon="5.37606">
        <ele>89.15</ele>
        <time>2015-10-01T11:45:49Z</time>
      </trkpt>
      <trkpt lat="43.22916" lon="5.37581">
        <ele>88.6</ele>
        <time>2015-10-01T11:46:07Z</time>
      </trkpt>
      <trkpt lat="43.22933" lon="5.3759">
        <ele>73.19</ele>
        <time>2015-10-01T11:46:21Z</time>
      </trkpt>
      <trkpt lat="43.22953" lon="5.37594">
        <ele>56.23</ele>
        <time>2015-10-01T11:46:45Z</time>
      </trkpt>
      <trkpt lat="43.22971" lon="5.37595">
        <ele>52.13</ele>
        <time>2015-10-01T11:46:58Z</time>
      </trkpt>
      <trkpt lat="43.22986" lon="5.37578">
        <ele>54.86</ele>
        <time>2015-10-01T11:47:08Z</time>
      </trkpt>
      <trkpt lat="43.23005" lon="5.3757">
        <ele>55.91</ele>
        <time>2015-10-01T11:47:17Z</time>
      </trkpt>
      <trkpt lat="43.23015" lon="5.37545">
        <ele>65.34</ele>
        <time>2015-10-01T11:47:29Z</time>
      </trkpt>
      <trkpt lat="43.23032" lon="5.37537">
        <ele>63</ele>
        <time>2015-10-01T11:47:37Z</time>
      </trkpt>
      <trkpt lat="43.23046" lon="5.37521">
        <ele>64.15</ele>
        <time>2015-10-01T11:47:51Z</time>
      </trkpt>
      <trkpt lat="43.23056" lon="5.37499">
        <ele>57.31</ele>
        <time>2015-10-01T11:48:05Z</time>
      </trkpt>
      <trkpt lat="43.23071" lon="5.37483">
        <ele>53.59</ele>
        <time>2015-10-01T11:48:16Z</time>
      </trkpt>
      <trkpt lat="43.23088" lon="5.37473">
        <ele>55.38</ele>
        <time>2015-10-01T11:48:29Z</time>
      </trkpt>
      <trkpt lat="43.23105" lon="5.37463">
        <ele>53.89</ele>
        <time>2015-10-01T11:48:44Z</time>
      </trkpt>
      <trkpt lat="43.23121" lon="5.37449">
        <ele>46.66</ele>
        <time>2015-10-01T11:49:02Z</time>
      </trkpt>
      <trkpt lat="43.23136" lon="5.37435">
        <ele>44.86</ele>
        <time>2015-10-01T11:49:11Z</time>
      </trkpt>
      <trkpt lat="43.23155" lon="5.37437">
        <ele>47</ele>
        <time>2015-10-01T11:49:23Z</time>
      </trkpt>
      <trkpt lat="43.23173" lon="5.37431">
        <ele>46.47</ele>
        <time>2015-10-01T11:49:36Z</time>
      </trkpt>
      <trkpt lat="43.23191" lon="5.37419">
        <ele>47.08</ele>
        <time>2015-10-01T11:49:49Z</time>
      </trkpt>
      <trkpt lat="43.23209" lon="5.37415">
        <ele>45.85</ele>
        <time>2015-10-01T11:50:02Z</time>
      </trkpt>
      <trkpt lat="43.23224" lon="5.37402">
        <ele>64.5</ele>
        <time>2015-10-01T11:50:14Z</time>
      </trkpt>
      <trkpt lat="43.23239" lon="5.37386">
        <ele>53.51</ele>
        <time>2015-10-01T11:50:24Z</time>
      </trkpt>
      <trkpt lat="43.2325" lon="5.37366">
        <ele>68.71</ele>
        <time>2015-10-01T11:50:35Z</time>
      </trkpt>
      <trkpt lat="43.23265" lon="5.37352">
        <ele>58.49</ele>
        <time>2015-10-01T11:50:47Z</time>
      </trkpt>
      <trkpt lat="43.23283" lon="5.37339">
        <ele>54.53</ele>
        <time>2015-10-01T11:51:06Z</time>
      </trkpt>
      <trkpt lat="43.23299" lon="5.37327">
        <ele>57.09</ele>
        <time>2015-10-01T11:51:16Z</time>
      </trkpt>
      <trkpt lat="43.23316" lon="5.3732">
        <ele>54.38</ele>
        <time>2015-10-01T11:51:31Z</time>
      </trkpt>
      <trkpt lat="43.23335" lon="5.3732">
        <ele>52.96</ele>
        <time>2015-10-01T11:51:49Z</time>
      </trkpt>
      <trkpt lat="43.23352" lon="5.3731">
        <ele>51.23</ele>
        <time>2015-10-01T11:52:12Z</time>
      </trkpt>
      <trkpt lat="43.23372" lon="5.37311">
        <ele>38.23</ele>
        <time>2015-10-01T11:52:58Z</time>
      </trkpt>
      <trkpt lat="43.23389" lon="5.37325">
        <ele>50.73</ele>
        <time>2015-10-01T11:53:14Z</time>
      </trkpt>
      <trkpt lat="43.23398" lon="5.37348">
        <ele>42.57</ele>
        <time>2015-10-01T11:53:55Z</time>
      </trkpt>
      <trkpt lat="43.23416" lon="5.37337">
        <ele>42.94</ele>
        <time>2015-10-01T11:54:57Z</time>
      </trkpt>
      <trkpt lat="43.23424" lon="5.37313">
        <ele>40.31</ele>
        <time>2015-10-01T11:55:10Z</time>
      </trkpt>
      <trkpt lat="43.23433" lon="5.3729">
        <ele>38.52</ele>
        <time>2015-10-01T11:55:30Z</time>
      </trkpt>
      <trkpt lat="43.23441" lon="5.37268">
        <ele>40.06</ele>
        <time>2015-10-01T11:55:44Z</time>
      </trkpt>
      <trkpt lat="43.23444" lon="5.37241">
        <ele>42.36</ele>
        <time>2015-10-01T11:55:57Z</time>
      </trkpt>
      <trkpt lat="43.2346" lon="5.37255">
        <ele>38.52</ele>
        <time>2015-10-01T11:56:25Z</time>
      </trkpt>
      <trkpt lat="43.23476" lon="5.37267">
        <ele>36.91</ele>
        <time>2015-10-01T11:56:55Z</time>
      </trkpt>
      <trkpt lat="43.23477" lon="5.37262">
        <ele>60.02</ele>
        <time>2015-10-01T11:58:41Z</time>
      </trkpt>
      <trkpt lat="43.23501" lon="5.37265">
        <ele>37.77</ele>
        <time>2015-10-01T11:58:46Z</time>
      </trkpt>
      <trkpt lat="43.23516" lon="5.3725">
        <ele>37.45</ele>
        <time>2015-10-01T11:59:10Z</time>
      </trkpt>
      <trkpt lat="43.23529" lon="5.3723">
        <ele>40.69</ele>
        <time>2015-10-01T11:59:37Z</time>
      </trkpt>
      <trkpt lat="43.2353" lon="5.37205">
        <ele>43.7</ele>
        <time>2015-10-01T11:59:55Z</time>
      </trkpt>
      <trkpt lat="43.23529" lon="5.3718">
        <ele>41.84</ele>
        <time>2015-10-01T12:00:18Z</time>
      </trkpt>
      <trkpt lat="43.2353" lon="5.37155">
        <ele>39.15</ele>
        <time>2015-10-01T12:01:08Z</time>
      </trkpt>
    </trkseg>
  </trk>
</gpx>